Schneifelwetter: Wetterstation Hallschlag, 537 m . NN
Wetterdaten: Donnerstag, 04.03.2010
Datum Zeit Temp. A. Feuchte A. Luftdruck Regen Wind Richtung Richtung Sonnenschein Helligkeit T Regen Taupunkt Windchill
04.03.2010 00:00 -1,7 C 78 % 1014 hPa 0,0 l/m 28,6 km/h (4 Bft) O-NO22.5 70 0 min 0 lux 0,00 min -5,0 C -15,3 C
04.03.2010 00:15 -1,8 C 78 % 1014 hPa 0,0 l/m 27,0 km/h (4 Bft) O-NO45 75 0 min 0 lux 0,00 min -5,1 C -14,9 C
04.03.2010 00:30 -1,8 C 78 % 1014 hPa 0,0 l/m 33,0 km/h (5 Bft) O-NO22.5 60 0 min 0 lux 0,00 min -5,1 C -16,8 C
04.03.2010 00:45 -1,9 C 78 % 1014 hPa 0,0 l/m 31,4 km/h (5 Bft) O-NO22.5 60 0 min 0 lux 0,00 min -5,2 C -16,5 C
04.03.2010 01:00 -1,9 C 79 % 1014 hPa 0,0 l/m 31,4 km/h (5 Bft) O-NO22.5 60 0 min 0 lux 0,00 min -5,0 C -16,5 C
04.03.2010 01:15 -2,2 C 79 % 1014 hPa 0,0 l/m 31,4 km/h (5 Bft) O-NO22.5 60 0 min 0 lux 0,00 min -5,3 C -16,9 C
04.03.2010 01:30 -2,2 C 79 % 1014 hPa 0,0 l/m 31,4 km/h (5 Bft) O-NO22.5 60 0 min 0 lux 0,00 min -5,3 C -16,9 C
04.03.2010 01:45 -2,2 C 79 % 1013 hPa 0,0 l/m 31,4 km/h (5 Bft) O-NO22.5 60 0 min 0 lux 0,00 min -5,3 C -16,9 C
04.03.2010 02:00 -2,3 C 79 % 1013 hPa 0,0 l/m 28,8 km/h (4 Bft) O-NO45 65 0 min 0 lux 0,00 min -5,4 C -16,2 C
04.03.2010 02:15 -2,4 C 80 % 1013 hPa 0,0 l/m 28,0 km/h (4 Bft) O-NO22.5 65 0 min 0 lux 0,00 min -5,4 C -16,1 C
04.03.2010 02:30 -2,5 C 80 % 1013 hPa 0,0 l/m 26,6 km/h (4 Bft) O-NO22.5 65 0 min 0 lux 0,00 min -5,5 C -15,7 C
04.03.2010 02:45 -2,7 C 80 % 1013 hPa 0,0 l/m 23,6 km/h (4 Bft) O-NO22.5 60 0 min 0 lux 0,00 min -5,7 C -14,8 C
04.03.2010 03:00 -2,8 C 80 % 1013 hPa 0,0 l/m 28,8 km/h (4 Bft) NO22.5 55 0 min 0 lux 0,00 min -5,8 C -16,9 C
04.03.2010 03:15 -2,9 C 80 % 1013 hPa 0,0 l/m 24,8 km/h (4 Bft) O-NO22.5 60 0 min 0 lux 0,00 min -5,9 C -15,6 C
04.03.2010 03:30 -3,0 C 80 % 1013 hPa 0,0 l/m 19,7 km/h (3 Bft) O-NO22.5 60 0 min 0 lux 0,00 min -6,0 C -13,4 C
04.03.2010 03:45 -3,0 C 80 % 1013 hPa 0,0 l/m 25,9 km/h (4 Bft) O-NO45 60 0 min 0 lux 0,00 min -6,0 C -16,1 C
04.03.2010 04:00 -2,9 C 79 % 1013 hPa 0,0 l/m 23,6 km/h (4 Bft) O-NO67.5 70 0 min 0 lux 0,00 min -6,0 C -15,1 C
04.03.2010 04:15 -3,0 C 80 % 1013 hPa 0,0 l/m 30,5 km/h (5 Bft) NO45 40 0 min 0 lux 0,00 min -6,0 C -17,8 C
04.03.2010 04:30 -3,0 C 81 % 1013 hPa 0,0 l/m 26,8 km/h (4 Bft) NO45 50 0 min 0 lux 0,00 min -5,8 C -16,5 C
04.03.2010 04:45 -3,0 C 83 % 1013 hPa 0,0 l/m 29,3 km/h (5 Bft) NO45 35 0 min 0 lux 0,00 min -5,5 C -17,4 C
04.03.2010 05:00 -3,1 C 83 % 1013 hPa 0,0 l/m 28,6 km/h (4 Bft) NO45 40 0 min 0 lux 0,00 min -5,6 C -17,3 C
04.03.2010 05:15 -3,2 C 84 % 1013 hPa 0,0 l/m 24,0 km/h (4 Bft) N-NO67.5 30 0 min 0 lux 0,00 min -5,5 C -15,6 C
04.03.2010 05:30 -3,2 C 84 % 1013 hPa 0,0 l/m 23,8 km/h (4 Bft) NO45 45 0 min 0 lux 0,00 min -5,5 C -15,6 C
04.03.2010 05:45 -3,2 C 84 % 1013 hPa 0,0 l/m 20,5 km/h (4 Bft) NO22.5 35 0 min 0 lux 0,00 min -5,5 C -14,0 C
04.03.2010 06:00 -3,3 C 84 % 1013 hPa 0,0 l/m 22,3 km/h (4 Bft) N-NO45 30 0 min 0 lux 0,00 min -5,6 C -15,0 C
04.03.2010 06:15 -3,4 C 85 % 1013 hPa 0,0 l/m 24,9 km/h (4 Bft) N-NO22.5 25 0 min 0 lux 0,00 min -5,5 C -16,3 C
04.03.2010 06:30 -3,4 C 85 % 1013 hPa 0,0 l/m 22,9 km/h (4 Bft) N-NO67.5 25 0 min 0 lux 0,00 min -5,5 C -15,4 C
04.03.2010 06:45 -3,4 C 86 % 1013 hPa 0,0 l/m 23,7 km/h (4 Bft) N-NO22.5 25 0 min 0 lux 0,00 min -5,4 C -15,8 C
04.03.2010 07:00 -3,3 C 86 % 1013 hPa 0,0 l/m 27,0 km/h (4 Bft) N-NO22.5 25 0 min 104 lux 0,00 min -5,3 C -17,0 C
04.03.2010 07:15 -3,5 C 88 % 1013 hPa 0,0 l/m 23,3 km/h (4 Bft) N-NO22.5 25 0 min 433 lux 0,00 min -5,2 C -15,7 C
04.03.2010 07:31 -3,7 C 90 % 1013 hPa 0,0 l/m 25,5 km/h (4 Bft) N-NO22.5 25 0 min 1,47 klux 0,00 min -5,1 C -16,9 C
04.03.2010 07:46 -3,8 C 91 % 1013 hPa 0,0 l/m 22,9 km/h (4 Bft) N-NO22.5 25 0 min 2,00 klux 0,00 min -5,0 C -16,0 C
04.03.2010 08:01 -3,8 C 93 % 1013 hPa 0,0 l/m 26,5 km/h (4 Bft) N-NO45 20 0 min 2,47 klux 0,00 min -4,8 C -17,5 C
04.03.2010 08:16 -3,5 C 93 % 1013 hPa 0,0 l/m 30,5 km/h (5 Bft) N-NO22.5 25 0 min 10,7 klux 0,00 min -4,5 C -18,5 C
04.03.2010 08:30 -3,3 C 92 % 1013 hPa 0,0 l/m 30,6 km/h (5 Bft) N-NO67.5 25 0 min 9,5 klux 0,00 min -4,4 C -18,2 C
04.03.2010 08:45 -3,2 C 94 % 1013 hPa 0,0 l/m 34,0 km/h (5 Bft) N-NO22.5 30 0 min 7,15 klux 0,00 min -4,0 C -19,1 C
04.03.2010 09:00 -3,0 C 94 % 1014 hPa 0,0 l/m 27,9 km/h (4 Bft) NO22.5 35 0 min 8,06 klux 0,00 min -3,8 C -16,9 C
04.03.2010 09:16 -2,9 C 94 % 1014 hPa 0,0 l/m 34,4 km/h (5 Bft) N-NO22.5 20 0 min 6,24 klux 0,00 min -3,7 C -18,8 C
04.03.2010 09:31 -2,8 C 92 % 1014 hPa 0,0 l/m 29,1 km/h (5 Bft) N-NO22.5 25 0 min 12,0 klux 0,00 min -3,9 C -17,0 C
04.03.2010 09:46 -2,8 C 89 % 1014 hPa 0,0 l/m 30,8 km/h (5 Bft) N-NO22.5 25 15 min 34,5 klux 0,00 min -4,4 C -17,6 C
04.03.2010 10:01 -2,9 C 87 % 1014 hPa 0,0 l/m 33,2 km/h (5 Bft) N-NO22.5 25 0 min 23,0 klux 0,00 min -4,8 C -18,5 C
04.03.2010 10:15 -2,2 C 83 % 1014 hPa 0,0 l/m 30,9 km/h (5 Bft) N-NO22.5 20 14 min 51,7 klux 0,00 min -4,7 C -16,8 C
04.03.2010 10:30 -2,4 C 80 % 1014 hPa 0,0 l/m 35,1 km/h (5 Bft) N-NO45 25 15 min 39,0 klux 0,00 min -5,4 C -18,3 C
04.03.2010 10:45 -1,8 C 76 % 1014 hPa 0,0 l/m 30,5 km/h (5 Bft) N-NO22.5 25 15 min 53,9 klux 0,00 min -5,5 C -16,1 C
04.03.2010 11:01 -1,0 C 73 % 1014 hPa 0,0 l/m 33,4 km/h (5 Bft) N-NO22.5 30 16 min 60,7 klux 0,00 min -5,2 C -15,8 C
04.03.2010 11:16 -0,8 C 72 % 1015 hPa 0,0 l/m 38,6 km/h (5 Bft) N-NO45 25 15 min 60,2 klux 0,00 min -5,2 C -16,8 C
04.03.2010 11:31 -0,9 C 73 % 1015 hPa 0,0 l/m 34,8 km/h (5 Bft) N-NO22.5 15 15 min 58,3 klux 0,00 min -5,1 C -16,0 C
04.03.2010 11:46 -0,8 C 71 % 1015 hPa 0,0 l/m 35,3 km/h (5 Bft) N-NO45 25 15 min 60,5 klux 0,00 min -5,4 C -16,0 C
04.03.2010 12:00 -0,3 C 67 % 1015 hPa 0,0 l/m 37,5 km/h (5 Bft) N-NO22.5 25 14 min 59,4 klux 0,00 min -5,7 C -15,8 C
04.03.2010 12:15 0,1 C 67 % 1015 hPa 0,0 l/m 43,2 km/h (6 Bft) N-NO45 20 15 min 62,6 klux 0,00 min -5,3 C -16,4 C
04.03.2010 12:30 -0,5 C 68 % 1015 hPa 0,0 l/m 37,5 km/h (5 Bft) N-NO22.5 25 15 min 62,6 klux 0,00 min -5,7 C -16,1 C
04.03.2010 12:46 -0,4 C 66 % 1015 hPa 0,0 l/m 37,8 km/h (5 Bft) N-NO67.5 25 16 min 63,6 klux 0,00 min -6,0 C -16,0 C
04.03.2010 13:01 0,0 C 68 % 1015 hPa 0,0 l/m 32,7 km/h (5 Bft) N-NO45 20 15 min 63,3 klux 0,00 min -5,2 C -14,2 C
04.03.2010 13:16 0,1 C 66 % 1015 hPa 0,0 l/m 36,5 km/h (5 Bft) N-NO67.5 30 15 min 60,9 klux 0,00 min -5,5 C -15,0 C
04.03.2010 13:31 0,2 C 64 % 1015 hPa 0,0 l/m 36,1 km/h (5 Bft) N-NO22.5 25 15 min 62,2 klux 0,00 min -5,8 C -14,8 C
04.03.2010 13:45 0,2 C 65 % 1015 hPa 0,0 l/m 40,7 km/h (6 Bft) N-NO22.5 30 14 min 67,0 klux 0,00 min -5,6 C -15,8 C
04.03.2010 14:00 0,4 C 65 % 1015 hPa 0,0 l/m 40,5 km/h (6 Bft) N-NO67.5 25 15 min 62,5 klux 0,00 min -5,4 C -15,4 C
04.03.2010 14:15 0,1 C 62 % 1015 hPa 0,0 l/m 35,8 km/h (5 Bft) N-NO22.5 25 15 min 60,3 klux 0,00 min -6,3 C -14,8 C
04.03.2010 14:31 0,3 C 63 % 1016 hPa 0,0 l/m 35,9 km/h (5 Bft) N-NO67.5 15 16 min 58,7 klux 0,00 min -5,9 C -14,6 C
04.03.2010 14:46 0,3 C 62 % 1016 hPa 0,0 l/m 41,1 km/h (6 Bft) N-NO67.5 15 15 min 57,9 klux 0,00 min -6,1 C -15,7 C
04.03.2010 15:01 0,4 C 62 % 1016 hPa 0,0 l/m 42,1 km/h (6 Bft) N-NO45 25 15 min 54,2 klux 0,00 min -6,0 C -15,8 C
04.03.2010 15:16 0,5 C 60 % 1016 hPa 0,0 l/m 33,5 km/h (5 Bft) N67.5 10 15 min 54,7 klux 0,00 min -6,3 C -13,7 C
04.03.2010 15:30 0,6 C 55 % 1016 hPa 0,0 l/m 38,4 km/h (5 Bft) N-NO22.5 25 14 min 50,8 klux 0,00 min -7,4 C -14,7 C
04.03.2010 15:45 0,3 C 61 % 1016 hPa 0,0 l/m 34,1 km/h (5 Bft) N-NO67.5 30 15 min 48,1 klux 0,00 min -6,3 C -14,1 C
04.03.2010 16:00 0,5 C 60 % 1016 hPa 0,0 l/m 37,6 km/h (5 Bft) N-NO45 15 15 min 43,6 klux 0,00 min -6,3 C -14,7 C
04.03.2010 16:16 0,5 C 60 % 1016 hPa 0,0 l/m 34,6 km/h (5 Bft) N-NO22.5 25 16 min 41,5 klux 0,00 min -6,3 C -14,0 C
04.03.2010 16:31 0,5 C 62 % 1016 hPa 0,0 l/m 37,4 km/h (5 Bft) N-NO22.5 15 15 min 37,1 klux 0,00 min -5,9 C -14,6 C
04.03.2010 16:46 0,3 C 60 % 1016 hPa 0,0 l/m 37,1 km/h (5 Bft) N-NO22.5 25 15 min 30,9 klux 0,00 min -6,5 C -14,9 C
04.03.2010 17:01 0,2 C 61 % 1016 hPa 0,0 l/m 31,1 km/h (5 Bft) N67.5 360 15 min 27,5 klux 0,00 min -6,4 C -13,5 C
04.03.2010 17:15 0,2 C 62 % 1016 hPa 0,0 l/m 31,7 km/h (5 Bft) NO22.5 35 0 min 26,3 klux 0,00 min -6,2 C -13,6 C
04.03.2010 17:30 0,0 C 65 % 1016 hPa 0,0 l/m 20,8 km/h (4 Bft) N-NO22.5 20 0 min 19,4 klux 0,00 min -5,8 C -10,0 C
04.03.2010 17:45 -0,4 C 67 % 1017 hPa 0,0 l/m 29,4 km/h (5 Bft) N-NO22.5 25 0 min 12,5 klux 0,00 min -5,8 C -13,8 C
04.03.2010 18:01 -0,7 C 67 % 1017 hPa 0,0 l/m 25,6 km/h (4 Bft) N22.5 5 0 min 5,74 klux 0,00 min -6,0 C -12,9 C
04.03.2010 18:16 -1,2 C 70 % 1017 hPa 0,0 l/m 24,8 km/h (4 Bft) N22.5 10 0 min 1,97 klux 0,00 min -6,0 C -13,3 C
04.03.2010 18:31 -1,5 C 71 % 1017 hPa 0,0 l/m 17,0 km/h (3 Bft) N22.5 10 0 min 661 lux 0,00 min -6,1 C -10,0 C
04.03.2010 18:45 -1,8 C 72 % 1017 hPa 0,0 l/m 13,1 km/h (3 Bft) N22.5 360 0 min 196 lux 0,00 min -6,2 C -7,9 C
04.03.2010 19:00 -2,2 C 72 % 1018 hPa 0,0 l/m 11,9 km/h (2 Bft) N22.5 355 0 min 29 lux 0,00 min -6,5 C -7,5 C
04.03.2010 19:15 -2,7 C 72 % 1018 hPa 0,0 l/m 3,5 km/h (1 Bft) N 355 0 min 6 lux 0,00 min -7,0 C -2,7 C
04.03.2010 19:30 -3,2 C 74 % 1018 hPa 0,0 l/m 8,1 km/h (2 Bft) N 355 0 min 0 lux 0,00 min -7,2 C -5,1 C
04.03.2010 19:46 -3,5 C 75 % 1018 hPa 0,0 l/m 0,3 km/h (0 Bft) N 355 0 min 0 lux 0,00 min -7,3 C -3,5 C
04.03.2010 20:01 -3,7 C 76 % 1018 hPa 0,0 l/m 4,0 km/h (1 Bft) N 355 0 min 0 lux 0,00 min -7,3 C -3,7 C
04.03.2010 20:16 -3,7 C 78 % 1018 hPa 0,0 l/m 8,1 km/h (2 Bft) N-NW22.5 340 0 min 0 lux 0,00 min -7,0 C -5,6 C
04.03.2010 20:30 -3,4 C 77 % 1018 hPa 0,0 l/m 9,9 km/h (2 Bft) N-NW 330 0 min 0 lux 0,00 min -6,8 C -7,1 C
04.03.2010 20:45 -3,2 C 75 % 1019 hPa 0,0 l/m 14,0 km/h (3 Bft) N22.5 355 0 min 0 lux 0,00 min -7,0 C -10,2 C
04.03.2010 21:00 -3,0 C 75 % 1019 hPa 0,0 l/m 13,2 km/h (3 Bft) N22.5 355 0 min 0 lux 0,00 min -6,8 C -9,4 C
04.03.2010 21:16 -3,4 C 75 % 1019 hPa 0,0 l/m 10,0 km/h (2 Bft) NW 325 0 min 0 lux 0,00 min -7,2 C -7,2 C
04.03.2010 21:31 -3,7 C 75 % 1019 hPa 0,0 l/m 5,0 km/h (1 Bft) N-NW 330 0 min 0 lux 0,00 min -7,5 C -3,7 C
04.03.2010 21:46 -3,8 C 76 % 1019 hPa 0,0 l/m 10,1 km/h (2 Bft) N45 350 0 min 0 lux 0,00 min -7,4 C -7,7 C
04.03.2010 22:01 -4,2 C 77 % 1019 hPa 0,0 l/m 6,3 km/h (2 Bft) N 350 0 min 0 lux 0,00 min -7,6 C -4,2 C
04.03.2010 22:15 -4,2 C 78 % 1019 hPa 0,0 l/m 10,3 km/h (2 Bft) N 5 0 min 0 lux 0,00 min -7,4 C -8,4 C
04.03.2010 22:30 -4,0 C 79 % 1019 hPa 0,0 l/m 11,2 km/h (2 Bft) N22.5 5 0 min 0 lux 0,00 min -7,1 C -8,9 C
04.03.2010 22:45 -3,8 C 78 % 1019 hPa 0,0 l/m 15,0 km/h (3 Bft) N22.5 5 0 min 0 lux 0,00 min -7,1 C -11,6 C
04.03.2010 23:01 -3,7 C 78 % 1019 hPa 0,0 l/m 24,7 km/h (4 Bft) N22.5 5 0 min 0 lux 0,00 min -7,0 C -16,6 C
04.03.2010 23:15 -3,8 C 79 % 1019 hPa 0,0 l/m 20,0 km/h (4 Bft) N22.5 5 0 min 0 lux 0,00 min -6,9 C -14,5 C
04.03.2010 23:31 -3,8 C 79 % 1019 hPa 0,0 l/m 15,2 km/h (3 Bft) N22.5 360 0 min 0 lux 0,00 min -6,9 C -11,7 C
04.03.2010 23:45 -4,1 C 79 % 1020 hPa 0,0 l/m 14,3 km/h (3 Bft) N22.5 360 0 min 0 lux 0,00 min -7,2 C -11,5 C
04.03.2010 23:55 -4,3 C 80 % 1020 hPa 0,0 l/m 13,8 km/h (3 Bft) N-NW22.5 345 0 min 0 lux 0,00 min -7,2 C -11,3 C
_ Min-Zeit 23:55 15:30 01:45 - 19:46 - - - - - 22:01 08:45
Minimum _ -4,3 C 55 % 1013 hPa - 0,3 km/h (0 Bft) - - - - - -7,6 C -19,1 C
_ Max-Zeit 15:30 08:45 23:45 00:00 12:15 - - 11:01 13:45 00:00 09:16 19:15
Maximum _ 0,6 C 94 % 1020 hPa 0,0 l/m 43,2 km/h
N-NO (6 Bft)
- - 16 min 67,0 klux 0,00 min -3,7 C -2,7 C
Durchschnitt _ -2,1 C 76 % 1015 hPa #0,0 l/m 26,2 km/h (4 Bft) N-NO - #7:15 h 17,5 klux #0 min. -5,8 C -14,0 C